Time;durP1;ratioP1;P1;durP2;ratioP2;P2;SDS_P1;SDS_P2;PMS_P1;PMS_P2;Temp;Humidity;BMP_temperature;BMP_pressure;BME280_temperature;BME280_humidity;BME280_pressure;Samples;Min_cycle;Max_cycle;Signal;HPM_P1;HPM_P2
2023/07/27 00:01:06;;;;;;;4.10;3.70;;;;;;;12.97;100.00;154689.97;5042568;28;20454;-80
2023/07/27 00:03:51;;;;;;;3.83;3.43;;;;;;;12.95;100.00;154686.06;5040899;28;20482;-80
2023/07/27 00:06:36;;;;;;;4.60;4.13;;;;;;;12.96;100.00;154687.34;5048161;28;20453;-80
2023/07/27 00:09:22;;;;;;;3.60;3.27;;;;;;;12.93;100.00;154680.88;5046237;28;20907;-80
2023/07/27 00:12:09;;;;;;;4.60;3.67;;;;;;;12.93;100.00;154680.88;5037401;28;20457;-80
2023/07/27 00:14:54;;;;;;;4.20;3.80;;;;;;;12.95;100.00;154686.06;5045778;28;20803;-80
2023/07/27 00:17:41;;;;;;;4.57;4.00;;;;;;;12.96;100.00;154688.66;5046329;28;20430;-81
2023/07/27 00:20:26;;;;;;;4.23;3.60;;;;;;;12.96;100.00;154688.66;5042153;28;20450;-80
2023/07/27 00:23:12;;;;;;;3.93;3.50;;;;;;;12.98;100.00;154692.53;5046498;28;20449;-80
2023/07/27 00:25:58;;;;;;;4.80;4.30;;;;;;;13.01;100.00;154701.63;5046775;28;20453;-80
2023/07/27 00:28:44;;;;;;;3.90;3.50;;;;;;;13.00;100.00;154699.03;5043833;28;20466;-81
2023/07/27 00:31:30;;;;;;;6.60;4.40;;;;;;;13.04;100.00;154709.44;5046980;28;20445;-81
2023/07/27 00:34:15;;;;;;;5.10;3.97;;;;;;;13.01;100.00;154701.63;5037497;28;20443;-80
2023/07/27 00:37:01;;;;;;;4.50;3.90;;;;;;;13.04;100.00;154708.13;5044684;28;20990;-80
2023/07/27 00:39:46;;;;;;;4.27;3.87;;;;;;;13.05;100.00;154710.72;5029513;28;20438;-80
2023/07/27 00:42:32;;;;;;;4.07;3.67;;;;;;;13.05;100.00;154712.00;5044018;28;20438;-80
2023/07/27 00:45:19;;;;;;;7.17;4.40;;;;;;;13.07;100.00;154717.25;5045303;28;20481;-80
2023/07/27 00:48:05;;;;;;;4.10;3.70;;;;;;;13.08;100.00;154718.56;5045681;28;20470;-80
2023/07/27 00:50:51;;;;;;;5.97;3.90;;;;;;;13.06;100.00;154714.59;5046365;28;20485;-80
2023/07/27 00:53:36;;;;;;;7.30;5.70;;;;;;;13.06;100.00;154714.59;5045572;28;20624;-80
2023/07/27 00:56:21;;;;;;;4.23;3.40;;;;;;;13.06;100.00;154713.28;5040895;28;20478;-80
2023/07/27 00:59:07;;;;;;;6.53;3.90;;;;;;;13.08;100.00;154719.81;5046309;28;20445;-81
2023/07/27 01:01:54;;;;;;;4.27;3.87;;;;;;;13.03;100.00;154705.50;5044563;28;20529;-81
2023/07/27 01:04:39;;;;;;;6.30;4.43;;;;;;;13.03;100.00;154705.50;5055068;28;20458;-80
2023/07/27 01:07:25;;;;;;;4.00;3.60;;;;;;;13.05;100.00;154710.72;5047842;28;20461;-80
2023/07/27 01:10:11;;;;;;;6.23;4.10;;;;;;;13.01;100.00;154701.63;5039473;28;20453;-80
2023/07/27 01:13:02;;;;;;;3.93;3.53;;;;;;;12.98;100.00;154693.84;5033034;28;20482;-80
2023/07/27 01:15:54;;;;;;;7.30;4.03;;;;;;;12.99;100.00;154696.47;5043979;28;20945;-80
2023/07/27 01:18:49;;;;;;;4.10;3.70;;;;;;;12.92;100.00;154678.25;5050461;28;20450;-80
2023/07/27 01:21:37;;;;;;;4.37;3.97;;;;;;;12.89;100.00;154670.53;5048500;28;20453;-80
2023/07/27 01:24:40;;;;;;;5.33;3.80;;;;;;;12.87;100.00;154665.28;5049336;28;20442;-80
2023/07/27 01:27:33;;;;;;;5.20;3.50;;;;;;;12.87;100.00;154665.28;5048574;28;20473;-81
2023/07/27 01:30:52;;;;;;;4.30;3.83;;;;;;;12.88;100.00;154667.91;5049776;28;20462;-80
2023/07/27 01:33:41;;;;;;;4.30;3.90;;;;;;;12.87;100.00;154665.28;5047517;28;20446;-80
2023/07/27 01:36:28;;;;;;;4.27;3.87;;;;;;;12.88;100.00;154666.59;5050227;28;21062;-80
2023/07/27 01:39:14;;;;;;;4.07;3.20;;;;;;;12.84;100.00;154657.50;5049334;28;20469;-80
2023/07/27 01:42:00;;;;;;;3.80;3.40;;;;;;;12.79;100.00;154644.53;5038851;28;20581;-80
2023/07/27 01:44:45;;;;;;;5.17;3.90;;;;;;;12.80;100.00;154647.16;5051053;28;20407;-80
2023/07/27 01:47:32;;;;;;;4.37;3.40;;;;;;;12.74;100.00;154631.56;5048097;28;20818;-80
2023/07/27 01:50:18;;;;;;;4.67;3.93;;;;;;;12.74;100.00;154631.56;5049583;28;20520;-79
2023/07/27 01:53:05;;;;;;;4.60;4.10;;;;;;;12.75;100.00;154635.50;5046451;28;20816;-80
2023/07/27 01:55:52;;;;;;;4.50;3.77;;;;;;;12.70;100.00;154621.22;5048315;28;20466;-80
2023/07/27 01:58:37;;;;;;;4.57;4.17;;;;;;;12.66;100.00;154612.13;5051214;28;20442;-80
2023/07/27 02:01:23;;;;;;;4.97;4.47;;;;;;;12.62;100.00;154601.78;5043135;28;20964;-80
2023/07/27 02:04:09;;;;;;;4.40;4.00;;;;;;;12.60;100.00;154595.28;5048887;28;21015;-80
2023/07/27 02:06:56;;;;;;;5.37;4.40;;;;;;;12.58;100.00;154590.06;5052838;28;20488;-79
2023/07/27 02:09:41;;;;;;;4.70;4.30;;;;;;;12.57;100.00;154587.50;5047898;28;20979;-80
2023/07/27 02:12:30;;;;;;;3.73;3.33;;;;;;;12.54;100.00;154579.72;5048506;28;20569;-80
2023/07/27 02:15:20;;;;;;;6.80;3.80;;;;;;;12.53;100.00;154577.09;5050365;28;21402;-80
2023/07/27 02:18:08;;;;;;;4.27;3.87;;;;;;;12.52;100.00;154575.78;5046684;28;20585;-80
2023/07/27 02:20:55;;;;;;;4.63;4.00;;;;;;;12.51;100.00;154573.25;5061819;28;20968;-80
2023/07/27 02:23:41;;;;;;;4.60;4.20;;;;;;;12.51;100.00;154571.94;5049536;28;20953;-80
2023/07/27 02:26:26;;;;;;;4.50;4.07;;;;;;;12.49;100.00;154566.75;5048045;28;20932;-80
2023/07/27 02:29:11;;;;;;;4.30;3.90;;;;;;;12.50;100.00;154569.31;5045011;28;20465;-81
2023/07/27 02:31:56;;;;;;;4.40;3.87;;;;;;;12.48;100.00;154564.16;5046454;28;20589;-80
2023/07/27 02:34:41;;;;;;;4.77;3.60;;;;;;;12.47;100.00;154561.59;5053000;28;20464;-80
2023/07/27 02:37:30;;;;;;;4.20;3.80;;;;;;;12.45;100.00;154556.34;5037484;28;20454;-80
2023/07/27 02:40:15;;;;;;;3.97;3.67;;;;;;;12.42;100.00;154548.56;5041902;28;20462;-80
2023/07/27 02:43:01;;;;;;;5.53;4.10;;;;;;;12.35;100.00;154531.75;5043292;28;20798;-80
2023/07/27 02:45:47;;;;;;;5.73;3.60;;;;;;;12.35;100.00;154530.44;5048573;28;20914;-80
2023/07/27 02:48:32;;;;;;;4.40;4.00;;;;;;;12.34;100.00;154527.88;5046232;28;20474;-80
2023/07/27 02:51:17;;;;;;;4.53;4.00;;;;;;;12.36;100.00;154533.03;5045503;28;20804;-80
2023/07/27 02:54:04;;;;;;;4.87;4.37;;;;;;;12.34;100.00;154527.88;5047247;28;20973;-80
2023/07/27 02:56:50;;;;;;;5.23;4.23;;;;;;;12.36;100.00;154533.03;5048014;28;20438;-80
2023/07/27 02:59:42;;;;;;;4.87;4.20;;;;;;;12.33;100.00;154526.56;5044063;28;20477;-80
2023/07/27 03:02:27;;;;;;;3.80;3.40;;;;;;;12.36;100.00;154533.03;5040303;28;20507;-80
2023/07/27 03:05:14;;;;;;;4.93;3.60;;;;;;;12.38;100.00;154538.22;5060639;28;20971;-80
2023/07/27 03:08:00;;;;;;;3.60;3.30;;;;;;;12.39;100.00;154540.84;5045952;28;20868;-80
2023/07/27 03:10:51;;;;;;;4.00;3.60;;;;;;;12.38;100.00;154539.53;5044415;28;20504;-80
2023/07/27 03:13:37;;;;;;;5.00;3.73;;;;;;;12.39;100.00;154542.09;5048071;28;20419;-80
2023/07/27 03:16:23;;;;;;;4.00;3.60;;;;;;;12.43;100.00;154551.19;5045572;28;21102;-80
2023/07/27 03:19:09;;;;;;;4.63;3.97;;;;;;;12.41;100.00;154547.31;5043287;28;20449;-79
2023/07/27 03:21:54;;;;;;;4.63;3.17;;;;;;;12.41;100.00;154547.31;5048831;28;20809;-80
2023/07/27 03:24:39;;;;;;;4.70;4.17;;;;;;;12.45;100.00;154556.34;5048236;28;20431;-80
2023/07/27 03:27:26;;;;;;;4.67;4.13;;;;;;;12.43;100.00;154552.50;5045399;28;20435;-79
2023/07/27 03:30:12;;;;;;;4.33;3.93;;;;;;;12.41;100.00;154546.00;5045839;28;20437;-80
2023/07/27 03:32:57;;;;;;;4.17;3.77;;;;;;;12.42;100.00;154549.88;5048326;28;20441;-80
2023/07/27 03:35:42;;;;;;;5.80;3.70;;;;;;;12.44;100.00;154553.78;5035080;28;21023;-80
2023/07/27 03:38:27;;;;;;;4.07;3.67;;;;;;;12.45;100.00;154556.34;5043623;28;20445;-80
2023/07/27 03:41:14;;;;;;;3.73;3.33;;;;;;;12.47;100.00;154561.59;5047361;28;20512;-80
2023/07/27 03:44:00;;;;;;;5.03;3.20;;;;;;;12.48;100.00;154565.44;5044953;28;20461;-79
2023/07/27 03:46:46;;;;;;;4.83;3.97;;;;;;;12.48;100.00;154565.44;5042338;28;20485;-79
2023/07/27 03:49:31;;;;;;;5.03;4.20;;;;;;;12.49;100.00;154566.75;5041987;28;20466;-79
2023/07/27 03:52:17;;;;;;;3.60;3.23;;;;;;;12.52;100.00;154575.78;5041819;28;20454;-79
2023/07/27 03:55:07;;;;;;;4.70;3.83;;;;;;;12.54;100.00;154581.03;5056359;28;20525;-79
2023/07/27 03:57:53;;;;;;;3.80;3.40;;;;;;;12.52;100.00;154574.53;5046894;28;20444;-79
2023/07/27 04:00:39;;;;;;;6.03;3.67;;;;;;;12.53;100.00;154577.09;5046047;28;20462;-79
2023/07/27 04:03:25;;;;;;;5.40;4.77;;;;;;;12.53;100.00;154578.41;5045077;28;20483;-79
2023/07/27 04:06:10;;;;;;;4.20;3.80;;;;;;;12.53;100.00;154578.41;5038770;28;20457;-79
2023/07/27 04:08:56;;;;;;;4.40;4.00;;;;;;;12.53;100.00;154578.41;5040545;28;20541;-79
2023/07/27 04:11:41;;;;;;;4.00;3.60;;;;;;;12.52;100.00;154574.53;5057556;28;20469;-79
2023/07/27 04:14:26;;;;;;;4.97;3.97;;;;;;;12.54;100.00;154581.03;5044200;28;20446;-79
2023/07/27 04:17:13;;;;;;;4.27;3.57;;;;;;;12.55;100.00;154583.59;5046918;28;20430;-79
2023/07/27 04:20:03;;;;;;;5.33;4.70;;;;;;;12.56;100.00;154584.91;5042438;28;20520;-78
2023/07/27 04:23:00;;;;;;;3.77;3.40;;;;;;;12.58;100.00;154590.06;5042698;28;20483;-79
2023/07/27 04:25:45;;;;;;;3.97;3.57;;;;;;;12.61;100.00;154597.84;5044295;28;20441;-80
2023/07/27 04:28:30;;;;;;;4.43;3.77;;;;;;;12.66;100.00;154610.81;5043352;28;20629;-79
2023/07/27 04:31:15;;;;;;;4.70;3.83;;;;;;;12.66;100.00;154610.81;5038307;28;20457;-80
2023/07/27 04:34:02;;;;;;;4.20;3.80;;;;;;;12.67;100.00;154613.44;5052832;28;20458;-80
2023/07/27 04:36:48;;;;;;;4.23;3.60;;;;;;;12.70;100.00;154621.22;5040257;28;20841;-80
2023/07/27 04:39:34;;;;;;;6.73;3.43;;;;;;;12.75;100.00;154634.19;5041605;28;20435;-79
2023/07/27 04:42:19;;;;;;;4.60;4.10;;;;;;;12.75;100.00;154634.19;5038099;28;20446;-80
2023/07/27 04:45:09;;;;;;;4.57;4.17;;;;;;;12.77;100.00;154639.38;5042039;28;20438;-80
2023/07/27 04:47:55;;;;;;;4.50;3.40;;;;;;;12.80;100.00;154647.16;5043221;28;20811;-80
2023/07/27 04:50:41;;;;;;;4.33;3.60;;;;;;;12.81;100.00;154649.75;5043909;28;20481;-80
2023/07/27 04:53:26;;;;;;;3.93;3.60;;;;;;;12.87;100.00;154665.28;5041830;28;20474;-83
2023/07/27 04:56:12;;;;;;;3.83;2.77;;;;;;;12.88;100.00;154667.91;5044755;28;21091;-84
2023/07/27 04:58:57;;;;;;;3.60;3.20;;;;;;;12.91;100.00;154675.69;5044750;28;20454;-84
2023/07/27 05:01:43;;;;;;;4.23;3.73;;;;;;;12.94;100.00;154683.50;5041284;28;20482;-84
2023/07/27 05:04:28;;;;;;;5.33;3.53;;;;;;;12.97;100.00;154691.28;5041266;28;20551;-83
2023/07/27 05:07:15;;;;;;;4.10;3.40;;;;;;;12.97;100.00;154691.28;5041565;28;20464;-83
2023/07/27 05:10:00;;;;;;;3.97;3.27;;;;;;;12.99;100.00;154696.47;5040186;28;20459;-83
2023/07/27 05:12:45;;;;;;;4.53;3.50;;;;;;;13.00;100.00;154699.03;5041739;28;21054;-83
2023/07/27 05:15:31;;;;;;;5.90;3.83;;;;;;;12.98;100.00;154693.84;5041331;28;20450;-83
2023/07/27 05:18:18;;;;;;;4.43;3.47;;;;;;;13.01;100.00;154701.63;5039050;28;20459;-83
2023/07/27 05:21:03;;;;;;;4.60;4.20;;;;;;;13.04;100.00;154709.44;5040183;28;20443;-83
2023/07/27 05:23:50;;;;;;;3.30;2.80;;;;;;;13.07;100.00;154715.97;5053922;28;20446;-83
2023/07/27 05:26:35;;;;;;;5.60;3.47;;;;;;;13.14;100.00;154735.41;5038886;28;20455;-83
2023/07/27 05:29:20;;;;;;;5.53;3.60;;;;;;;13.16;100.00;154740.59;5042372;28;20813;-83
2023/07/27 05:32:06;;;;;;;3.60;3.27;;;;;;;13.20;100.00;154751.00;5041398;28;20450;-84
2023/07/27 05:34:52;;;;;;;3.80;3.07;;;;;;;13.28;100.00;154770.44;5041163;28;20449;-83
2023/07/27 05:37:38;;;;;;;3.77;2.97;;;;;;;13.35;100.00;154788.59;5042645;28;20454;-83
2023/07/27 05:40:24;;;;;;;3.20;2.90;;;;;;;13.43;100.00;154810.66;5041527;28;20528;-83
2023/07/27 05:43:09;;;;;;;4.50;3.20;;;;;;;13.48;100.00;154821.03;5041732;28;20458;-83
2023/07/27 05:45:55;;;;;;;3.53;3.20;;;;;;;13.55;100.00;154840.53;5042803;28;20952;-83
2023/07/27 05:48:40;;;;;;;3.30;3.00;;;;;;;13.58;100.00;154847.03;5043928;28;20474;-83
2023/07/27 05:51:25;;;;;;;2.73;2.50;;;;;;;13.61;100.00;154856.06;5044327;28;20577;-83
2023/07/27 05:54:10;;;;;;;3.70;3.40;;;;;;;13.66;100.00;154867.78;5048095;28;20948;-84
2023/07/27 05:56:57;;;;;;;3.53;3.03;;;;;;;13.65;100.00;154866.50;5042044;28;20493;-83
2023/07/27 05:59:42;;;;;;;4.73;3.53;;;;;;;13.65;100.00;154865.19;5040070;28;20506;-83
2023/07/27 06:02:28;;;;;;;3.93;3.57;;;;;;;13.72;100.00;154884.63;5038655;28;20534;-84
2023/07/27 06:05:13;;;;;;;4.40;4.00;;;;;;;13.77;100.00;154896.31;5052757;28;20446;-84
2023/07/27 06:08:01;;;;;;;3.23;2.93;;;;;;;13.77;100.00;154897.63;5037826;28;20454;-83
2023/07/27 06:10:46;;;;;;;3.10;2.70;;;;;;;13.82;100.00;154909.34;5037226;28;20454;-84
2023/07/27 06:13:33;;;;;;;3.33;3.03;;;;;;;13.86;100.00;154919.69;5035324;28;20948;-83
2023/07/27 06:16:18;;;;;;;3.73;2.80;;;;;;;13.91;100.00;154932.66;5038294;28;20438;-84
2023/07/27 06:19:04;;;;;;;3.50;2.70;;;;;;;13.98;100.00;154950.81;5037037;28;20470;-83
2023/07/27 06:21:49;;;;;;;3.80;3.20;;;;;;;14.02;100.00;154962.56;5040531;28;20439;-83
2023/07/27 06:24:34;;;;;;;4.33;3.40;;;;;;;14.11;100.00;154983.31;5040524;28;20450;-83
2023/07/27 06:27:20;;;;;;;4.20;3.30;;;;;;;14.19;100.00;155005.34;5036018;28;20687;-83
2023/07/27 06:30:09;;;;;;;4.47;3.60;;;;;;;14.32;100.00;155039.16;5038416;28;20483;-84
2023/07/27 06:32:54;;;;;;;3.60;3.10;;;;;;;14.46;100.00;155075.53;5041946;28;20454;-84
2023/07/27 06:35:40;;;;;;;3.77;3.20;;;;;;;14.58;100.00;155105.44;5050416;28;20447;-84
2023/07/27 06:38:25;;;;;;;4.37;3.33;;;;;;;14.72;100.00;155140.50;5038220;28;20470;-83
2023/07/27 06:41:10;;;;;;;3.23;2.93;;;;;;;14.84;100.00;155171.66;5051790;28;20436;-83
2023/07/27 06:43:56;;;;;;;5.67;4.07;;;;;;;14.96;100.00;155204.13;5037803;28;20969;-83
2023/07/27 06:46:42;;;;;;;3.37;2.90;;;;;;;15.07;100.00;155232.72;5041358;28;20470;-82
2023/07/27 06:49:28;;;;;;;3.90;3.00;;;;;;;15.16;100.00;155254.81;5037694;28;20518;-83
2023/07/27 06:52:13;;;;;;;3.10;2.70;;;;;;;15.25;100.00;155278.19;5039231;28;20758;-83
2023/07/27 06:54:58;;;;;;;3.63;2.80;;;;;;;15.38;99.85;155310.72;5037133;28;20478;-83
2023/07/27 06:57:44;;;;;;;4.90;2.77;;;;;;;15.45;99.81;155330.19;5042269;28;20454;-83
2023/07/27 07:00:29;;;;;;;3.40;2.70;;;;;;;15.52;99.91;155347.13;5037646;28;20837;-83
2023/07/27 07:03:18;;;;;;;9.60;3.17;;;;;;;15.60;98.07;155367.91;5038510;28;20901;-83
2023/07/27 07:06:03;;;;;;;3.17;2.83;;;;;;;15.69;98.55;155392.66;5039254;28;20458;-83
2023/07/27 07:08:49;;;;;;;3.77;3.10;;;;;;;15.76;97.55;155410.84;5040038;28;20478;-83
2023/07/27 07:11:34;;;;;;;4.07;2.87;;;;;;;15.79;96.46;155418.63;5035963;28;21063;-83
2023/07/27 07:14:20;;;;;;;3.00;2.60;;;;;;;15.83;95.80;155429.03;5038181;28;20459;-83
2023/07/27 07:17:06;;;;;;;3.40;3.00;;;;;;;15.86;95.93;155435.50;5039392;28;20459;-83
2023/07/27 07:19:53;;;;;;;5.40;2.80;;;;;;;15.92;93.97;155449.81;5038053;28;20473;-83
2023/07/27 07:22:38;;;;;;;2.90;2.60;;;;;;;15.94;94.66;155455.06;5037642;28;21225;-83
2023/07/27 07:25:23;;;;;;;3.40;2.97;;;;;;;15.96;93.77;155460.25;5038837;28;20950;-83
2023/07/27 07:28:09;;;;;;;3.00;2.70;;;;;;;15.96;94.17;155460.25;5038407;28;20458;-83
2023/07/27 07:30:55;;;;;;;3.50;3.20;;;;;;;15.98;92.98;155465.44;5039087;28;20492;-83
2023/07/27 07:33:40;;;;;;;3.03;2.50;;;;;;;16.02;91.47;155475.88;5038329;28;20455;-83
2023/07/27 07:36:27;;;;;;;3.07;2.77;;;;;;;16.05;91.21;155483.63;5037548;28;20458;-83
2023/07/27 07:39:12;;;;;;;4.03;3.00;;;;;;;16.10;90.38;155497.94;5039499;28;20458;-83
2023/07/27 07:41:58;;;;;;;3.10;2.60;;;;;;;16.13;91.29;155505.75;5036466;28;20520;-83
2023/07/27 07:44:44;;;;;;;3.70;2.60;;;;;;;16.16;90.57;155513.53;5043219;28;20540;-83
2023/07/27 07:47:29;;;;;;;3.93;2.83;;;;;;;16.18;91.89;155517.44;5038903;28;20461;-83
2023/07/27 07:50:14;;;;;;;3.40;2.53;;;;;;;16.15;92.02;155510.94;5033901;28;20679;-83
2023/07/27 07:53:01;;;;;;;4.53;2.80;;;;;;;16.11;93.33;155499.25;5037669;28;20463;-82
2023/07/27 07:55:46;;;;;;;3.73;2.60;;;;;;;16.14;89.64;155507.06;5038364;28;20584;-83
2023/07/27 07:58:32;;;;;;;5.50;3.20;;;;;;;16.16;91.03;155512.25;5055785;28;20568;-83
2023/07/27 08:01:17;;;;;;;4.83;4.07;;;;;;;16.20;92.01;155522.66;5048454;28;20458;-83
2023/07/27 08:04:02;;;;;;;3.00;2.70;;;;;;;16.13;91.48;155504.44;5044299;28;20483;-83
2023/07/27 08:06:48;;;;;;;2.90;2.60;;;;;;;16.16;90.59;155513.53;5039628;28;20922;-83
2023/07/27 08:09:34;;;;;;;4.23;3.10;;;;;;;16.14;91.53;155508.38;5040453;28;20474;-83
2023/07/27 08:12:20;;;;;;;3.13;2.60;;;;;;;16.17;91.28;155514.88;5034468;28;21111;-83
2023/07/27 08:15:06;;;;;;;4.10;3.17;;;;;;;16.23;90.45;155531.75;5038500;28;21018;-83
2023/07/27 08:17:52;;;;;;;3.10;2.77;;;;;;;16.23;91.82;155531.75;5037118;28;20447;-83
2023/07/27 08:20:37;;;;;;;4.27;2.93;;;;;;;16.27;91.98;155540.84;5036723;28;20450;-82
2023/07/27 08:23:22;;;;;;;5.50;2.70;;;;;;;16.36;91.08;155565.56;5038103;28;20450;-82
2023/07/27 08:26:10;;;;;;;6.80;3.00;;;;;;;16.45;89.23;155588.97;5039008;28;20446;-82
2023/07/27 08:28:55;;;;;;;3.70;3.27;;;;;;;16.46;90.26;155590.28;5035267;28;20462;-82
2023/07/27 08:31:48;;;;;;;3.40;3.10;;;;;;;16.51;90.85;155603.28;5037879;28;20443;-82
2023/07/27 08:34:36;;;;;;;2.60;2.40;;;;;;;16.50;89.00;155600.66;5037604;28;20529;-82
2023/07/27 08:37:21;;;;;;;3.70;3.20;;;;;;;16.64;90.43;155637.16;5037776;28;20470;-82
2023/07/27 08:40:08;;;;;;;4.30;2.93;;;;;;;16.63;89.36;155634.53;5038689;28;21058;-82
2023/07/27 08:42:57;;;;;;;4.10;3.00;;;;;;;16.63;90.67;155634.53;5039055;28;20443;-82
2023/07/27 08:45:43;;;;;;;2.87;2.60;;;;;;;16.64;89.78;155637.16;5036840;28;20892;-82
2023/07/27 08:48:29;;;;;;;3.43;2.80;;;;;;;16.69;87.16;155650.16;5033276;28;20932;-82
2023/07/27 08:51:14;;;;;;;3.00;2.67;;;;;;;16.74;87.63;155663.16;5037747;28;20468;-82
2023/07/27 08:53:59;;;;;;;4.40;3.07;;;;;;;16.78;87.94;155673.59;5035439;28;20592;-82
2023/07/27 08:56:44;;;;;;;6.13;3.20;;;;;;;16.84;87.83;155687.88;5037743;28;20752;-82
2023/07/27 08:59:31;;;;;;;2.93;2.63;;;;;;;16.88;88.33;155699.63;5036687;28;20444;-82
2023/07/27 09:02:20;;;;;;;4.37;2.50;;;;;;;16.85;86.27;155691.81;5035015;28;20797;-81
2023/07/27 09:05:06;;;;;;;3.00;2.70;;;;;;;16.94;84.76;155715.19;5036970;28;20857;-82
2023/07/27 09:07:51;;;;;;;3.00;2.47;;;;;;;17.00;85.69;155729.50;5042251;28;20509;-85
2023/07/27 09:10:42;;;;;;;4.47;2.90;;;;;;;16.97;87.53;155723.00;5038181;28;20937;-82
2023/07/27 09:13:30;;;;;;;3.37;2.73;;;;;;;16.94;86.07;155715.19;5034091;28;20454;-82
2023/07/27 09:16:22;;;;;;;3.57;3.27;;;;;;;16.99;84.99;155728.25;5034262;28;20787;-82
2023/07/27 09:19:07;;;;;;;2.87;2.60;;;;;;;17.03;86.06;155738.63;5034486;28;20478;-82
2023/07/27 09:21:55;;;;;;;5.40;2.90;;;;;;;17.05;84.83;155743.81;5036787;28;20990;-82
2023/07/27 09:24:41;;;;;;;2.73;2.40;;;;;;;17.04;85.63;155741.25;5034659;28;20474;-82
2023/07/27 09:27:26;;;;;;;4.30;2.60;;;;;;;17.07;85.70;155746.44;5035668;28;20451;-82
2023/07/27 09:30:12;;;;;;;4.10;2.70;;;;;;;17.05;87.23;155743.81;5034219;28;20478;-82
2023/07/27 09:33:00;;;;;;;3.30;2.83;;;;;;;17.05;89.66;155742.53;5036260;28;20479;-82
2023/07/27 09:35:46;;;;;;;4.93;2.93;;;;;;;17.01;90.49;155732.13;5037003;28;20975;-82
2023/07/27 09:38:31;;;;;;;2.80;2.20;;;;;;;16.98;91.17;155725.63;5039444;28;20520;-82
2023/07/27 09:41:17;;;;;;;4.97;3.33;;;;;;;16.97;91.08;155723.00;5039062;28;20791;-82
2023/07/27 09:44:03;;;;;;;4.23;3.13;;;;;;;16.97;92.71;155721.75;5040363;28;20589;-82
2023/07/27 09:46:48;;;;;;;3.40;3.10;;;;;;;16.96;94.63;155719.13;5039594;28;20488;-82
2023/07/27 09:49:35;;;;;;;4.13;2.90;;;;;;;16.92;96.45;155710.00;5039793;28;20536;-83
2023/07/27 09:52:21;;;;;;;4.70;3.40;;;;;;;16.84;96.10;155689.19;5038069;28;20562;-82
2023/07/27 09:55:09;;;;;;;3.47;2.80;;;;;;;16.84;96.88;155687.88;5038402;28;20810;-82
2023/07/27 09:57:54;;;;;;;4.53;3.50;;;;;;;16.83;94.64;155686.59;5041551;28;20988;-82
2023/07/27 10:00:40;;;;;;;3.67;2.80;;;;;;;16.87;93.45;155697.00;5039075;28;20956;-82
2023/07/27 10:03:25;;;;;;;3.20;2.90;;;;;;;16.94;94.50;155715.19;5039350;28;20439;-82
2023/07/27 10:06:14;;;;;;;3.80;3.30;;;;;;;16.93;96.34;155712.63;5039031;28;20591;-82
2023/07/27 10:09:21;;;;;;;4.60;3.10;;;;;;;16.90;94.83;155703.50;5040425;28;20529;-82
2023/07/27 10:12:16;;;;;;;3.30;2.87;;;;;;;16.90;94.04;155703.50;5039716;28;20477;-82
2023/07/27 10:15:21;;;;;;;4.43;2.93;;;;;;;16.95;95.20;155717.81;5052972;28;20924;-81
2023/07/27 10:18:19;;;;;;;3.53;2.60;;;;;;;16.95;94.79;155717.81;5039085;28;20446;-82
2023/07/27 10:21:24;;;;;;;3.10;2.80;;;;;;;16.95;91.84;155717.81;5039255;28;20521;-81
2023/07/27 10:24:09;;;;;;;4.00;2.67;;;;;;;16.99;92.01;155726.94;5039226;28;20513;-82
2023/07/27 10:26:54;;;;;;;5.13;3.10;;;;;;;17.02;91.41;155736.00;5038698;28;20455;-82
2023/07/27 10:29:40;;;;;;;2.90;2.60;;;;;;;17.07;90.10;155746.44;5040399;28;20461;-82
2023/07/27 10:32:25;;;;;;;3.43;2.43;;;;;;;17.12;91.11;155759.47;5039506;28;20463;-82
2023/07/27 10:35:11;;;;;;;2.93;2.63;;;;;;;17.19;91.01;155777.66;5038516;28;20813;-82
2023/07/27 10:37:57;;;;;;;5.43;2.63;;;;;;;17.27;90.45;155798.47;5044510;28;20577;-82
2023/07/27 10:40:44;;;;;;;2.63;2.30;;;;;;;17.27;89.22;155798.47;5043128;28;20446;-82
2023/07/27 10:43:29;;;;;;;3.60;2.87;;;;;;;17.41;88.37;155834.94;5041219;28;20441;-82
2023/07/27 10:46:22;;;;;;;3.30;3.00;;;;;;;17.49;87.31;155855.78;5040961;28;20442;-82
2023/07/27 10:49:08;;;;;;;3.33;3.03;;;;;;;17.62;88.96;155889.66;5044168;28;20501;-82
2023/07/27 10:51:56;;;;;;;3.23;2.93;;;;;;;17.69;86.28;155907.88;5041069;28;20497;-82
2023/07/27 10:54:43;;;;;;;7.40;3.17;;;;;;;17.75;87.20;155923.50;5039397;28;20482;-82
2023/07/27 10:57:31;;;;;;;3.30;3.00;;;;;;;17.89;87.10;155959.97;5037527;28;20501;-82
2023/07/27 11:00:17;;;;;;;2.50;2.30;;;;;;;17.95;85.12;155975.56;5038826;28;21006;-82
2023/07/27 11:03:03;;;;;;;3.20;2.80;;;;;;;18.02;88.84;155992.53;5039448;28;20488;-82
2023/07/27 11:06:02;;;;;;;3.37;3.07;;;;;;;18.07;85.41;156005.53;5037990;28;20473;-82
2023/07/27 11:08:48;;;;;;;4.63;2.67;;;;;;;18.12;87.33;156018.56;5039829;28;20976;-82
2023/07/27 11:11:35;;;;;;;3.67;2.57;;;;;;;18.16;87.32;156029.00;5048263;28;20457;-82
2023/07/27 11:14:20;;;;;;;3.57;2.83;;;;;;;18.14;85.11;156023.75;5051273;28;20449;-82
2023/07/27 11:17:06;;;;;;;4.23;3.10;;;;;;;18.21;84.71;156043.28;5039428;28;20447;-80
2023/07/27 11:20:12;;;;;;;17.13;2.87;;;;;;;18.34;88.07;156074.56;5038178;28;20797;-80
2023/07/27 11:22:59;;;;;;;3.60;2.60;;;;;;;18.32;84.75;156069.38;5038415;28;20479;-80
2023/07/27 11:25:44;;;;;;;4.23;2.70;;;;;;;18.42;89.01;156096.72;5038962;28;20467;-80
2023/07/27 11:28:32;;;;;;;3.33;2.90;;;;;;;18.42;87.85;156096.72;5038260;28;21810;-79
2023/07/27 11:31:18;;;;;;;2.73;2.40;;;;;;;18.42;83.80;156095.41;5039322;28;20491;-78
2023/07/27 11:34:04;;;;;;;2.60;2.33;;;;;;;18.50;82.69;156116.31;5036788;28;20455;-79
2023/07/27 11:36:52;;;;;;;3.10;2.20;;;;;;;18.57;86.00;156134.53;5041664;28;20501;-80
2023/07/27 11:39:38;;;;;;;4.73;2.53;;;;;;;18.55;84.32;156129.31;5035559;28;20497;-80
2023/07/27 11:42:26;;;;;;;3.50;2.70;;;;;;;18.59;82.95;156139.72;5035527;28;20439;-81
2023/07/27 11:45:13;;;;;;;3.20;2.60;;;;;;;18.70;82.28;156168.38;5037623;28;20948;-82
2023/07/27 11:47:59;;;;;;;4.90;2.73;;;;;;;18.75;84.29;156182.72;5036143;28;20442;-81
2023/07/27 11:50:45;;;;;;;3.60;2.73;;;;;;;18.74;84.00;156180.09;5037205;28;20470;-81
2023/07/27 11:53:31;;;;;;;3.63;2.10;;;;;;;18.80;85.65;156194.44;5037223;28;20487;-81
2023/07/27 11:56:16;;;;;;;3.07;2.53;;;;;;;18.77;87.95;156187.91;5048607;28;20486;-81
2023/07/27 11:59:01;;;;;;;3.27;2.97;;;;;;;18.74;86.84;156180.09;5037465;28;21011;-81
2023/07/27 12:01:49;;;;;;;2.90;2.60;;;;;;;18.72;90.15;156174.91;5038003;28;20435;-81
2023/07/27 12:04:35;;;;;;;3.40;2.70;;;;;;;18.78;91.25;156189.22;5035044;28;21065;-81
2023/07/27 12:07:20;;;;;;;5.60;2.83;;;;;;;18.77;92.88;156186.66;5037607;28;20450;-80
2023/07/27 12:10:06;;;;;;;2.97;2.73;;;;;;;18.75;92.80;156181.41;5036203;28;20659;-81
2023/07/27 12:12:52;;;;;;;3.10;2.70;;;;;;;18.78;95.79;156190.53;5035816;28;20435;-82
2023/07/27 12:15:40;;;;;;;3.50;2.50;;;;;;;18.73;98.81;156176.22;5036075;28;20446;-82
2023/07/27 12:18:28;;;;;;;3.80;3.10;;;;;;;18.74;98.33;156178.84;5036368;28;20452;-84
2023/07/27 12:21:15;;;;;;;3.80;2.70;;;;;;;18.74;100.00;156178.84;5034760;28;20463;-82
2023/07/27 12:24:01;;;;;;;4.50;2.60;;;;;;;18.68;100.00;156163.19;5037920;28;20450;-83
2023/07/27 12:26:46;;;;;;;4.67;3.20;;;;;;;18.67;100.00;156160.56;5035037;28;20442;-83
2023/07/27 12:29:32;;;;;;;3.23;2.53;;;;;;;18.67;100.00;156160.56;5036830;28;20462;-83
2023/07/27 12:32:17;;;;;;;3.10;2.80;;;;;;;18.60;100.00;156142.34;5034709;28;20461;-83
2023/07/27 12:35:04;;;;;;;4.17;3.00;;;;;;;18.60;100.00;156142.34;5037841;28;20450;-83
2023/07/27 12:37:49;;;;;;;2.40;2.20;;;;;;;18.58;100.00;156137.13;5037910;28;20962;-83
2023/07/27 12:40:35;;;;;;;3.17;2.70;;;;;;;18.54;100.00;156128.00;5037470;28;20521;-83
2023/07/27 12:43:22;;;;;;;3.40;3.10;;;;;;;18.56;100.00;156133.19;5038513;28;20466;-83
2023/07/27 12:46:07;;;;;;;5.87;3.30;;;;;;;18.59;100.00;156139.72;5043023;28;20571;-81
2023/07/27 12:48:53;;;;;;;4.63;2.77;;;;;;;18.56;100.00;156131.94;5034502;28;20567;-81